sensor_id;sensor_type;location;lat;lon;timestamp;pressure;altitude;pressure_sealevel;temperature;humidity
13612;BME280;6877;51.436;6.774;2023-08-12T00:01:01;101297.72;;;19.17;100.00
13612;BME280;6877;51.436;6.774;2023-08-12T00:03:28;101289.78;;;19.17;100.00
13612;BME280;6877;51.436;6.774;2023-08-12T00:05:54;101283.53;;;19.18;100.00
13612;BME280;6877;51.436;6.774;2023-08-12T00:08:22;101287.88;;;19.19;100.00
13612;BME280;6877;51.436;6.774;2023-08-12T00:10:54;101291.44;;;19.20;100.00
13612;BME280;6877;51.436;6.774;2023-08-12T00:13:20;101294.94;;;19.20;100.00
13612;BME280;6877;51.436;6.774;2023-08-12T00:15:52;101291.44;;;19.20;100.00
13612;BME280;6877;51.436;6.774;2023-08-12T00:18:18;101288.81;;;19.18;100.00
13612;BME280;6877;51.436;6.774;2023-08-12T00:20:44;101294.28;;;19.15;100.00
13612;BME280;6877;51.436;6.774;2023-08-12T00:23:11;101284.75;;;19.11;100.00
13612;BME280;6877;51.436;6.774;2023-08-12T00:25:42;101289.09;;;19.12;100.00
13612;BME280;6877;51.436;6.774;2023-08-12T00:28:14;101286.31;;;19.15;100.00
13612;BME280;6877;51.436;6.774;2023-08-12T00:30:40;101277.56;;;19.13;100.00
13612;BME280;6877;51.436;6.774;2023-08-12T00:33:07;101271.34;;;19.14;100.00
13612;BME280;6877;51.436;6.774;2023-08-12T00:35:33;101264.22;;;19.15;100.00
13612;BME280;6877;51.436;6.774;2023-08-12T00:37:59;101256.28;;;19.15;100.00
13612;BME280;6877;51.436;6.774;2023-08-12T00:40:31;101253.69;;;19.13;100.00
13612;BME280;6877;51.436;6.774;2023-08-12T00:42:57;101258.06;;;19.14;100.00
13612;BME280;6877;51.436;6.774;2023-08-12T00:45:29;101258.22;;;19.11;100.00
13612;BME280;6877;51.436;6.774;2023-08-12T00:48:01;101260.91;;;19.10;100.00
13612;BME280;6877;51.436;6.774;2023-08-12T00:50:29;101258.41;;;19.07;100.00
13612;BME280;6877;51.436;6.774;2023-08-12T00:53:00;101257.56;;;19.06;100.00
13612;BME280;6877;51.436;6.774;2023-08-12T00:55:33;101251.47;;;19.04;100.00
13612;BME280;6877;51.436;6.774;2023-08-12T00:58:00;101256.91;;;19.01;100.00
13612;BME280;6877;51.436;6.774;2023-08-12T01:00:33;101258.78;;;18.99;100.00
13612;BME280;6877;51.436;6.774;2023-08-12T01:03:05;101257.06;;;18.98;100.00
13612;BME280;6877;51.436;6.774;2023-08-12T01:05:32;101259.63;;;18.99;100.00
13612;BME280;6877;51.436;6.774;2023-08-12T01:07:59;101251.63;;;19.01;100.00
13612;BME280;6877;51.436;6.774;2023-08-12T01:10:32;101246.31;;;19.01;100.00
13612;BME280;6877;51.436;6.774;2023-08-12T01:15:47;101242.84;;;18.99;100.00
13612;BME280;6877;51.436;6.774;2023-08-12T01:18:17;101238.50;;;18.98;100.00
13612;BME280;6877;51.436;6.774;2023-08-12T01:20:44;101235.84;;;18.98;100.00
13612;BME280;6877;51.436;6.774;2023-08-12T01:23:13;101227.88;;;18.98;100.00
13612;BME280;6877;51.436;6.774;2023-08-12T01:25:40;101218.97;;;18.99;100.00
13612;BME280;6877;51.436;6.774;2023-08-12T01:28:12;101222.56;;;18.98;100.00
13612;BME280;6877;51.436;6.774;2023-08-12T01:31:06;101226.22;;;18.95;100.00
13612;BME280;6877;51.436;6.774;2023-08-12T01:33:46;101230.69;;;18.95;100.00
13612;BME280;6877;51.436;6.774;2023-08-12T01:36:16;101225.38;;;18.95;100.00
13612;BME280;6877;51.436;6.774;2023-08-12T01:38:44;101222.72;;;18.95;100.00
13612;BME280;6877;51.436;6.774;2023-08-12T01:41:15;101221.97;;;18.91;100.00
13612;BME280;6877;51.436;6.774;2023-08-12T01:43:42;101218.47;;;18.91;100.00
13612;BME280;6877;51.436;6.774;2023-08-12T01:46:14;101216.75;;;18.90;100.00
13612;BME280;6877;51.436;6.774;2023-08-12T01:48:41;101216.81;;;18.88;100.00
13612;BME280;6877;51.436;6.774;2023-08-12T01:51:07;101216.81;;;18.88;100.00
13612;BME280;6877;51.436;6.774;2023-08-12T01:53:39;101215.81;;;18.91;100.00
13612;BME280;6877;51.436;6.774;2023-08-12T01:56:05;101220.22;;;18.92;100.00
13612;BME280;6877;51.436;6.774;2023-08-12T01:58:31;101216.66;;;18.91;100.00
13612;BME280;6877;51.436;6.774;2023-08-12T02:01:03;101206.19;;;18.88;100.00
13612;BME280;6877;51.436;6.774;2023-08-12T02:03:29;101207.09;;;18.89;100.00
13612;BME280;6877;51.436;6.774;2023-08-12T02:05:56;101200.97;;;18.87;100.00
13612;BME280;6877;51.436;6.774;2023-08-12T02:08:22;101201.94;;;18.86;100.00
13612;BME280;6877;51.436;6.774;2023-08-12T02:10:48;101202.69;;;18.88;100.00
13612;BME280;6877;51.436;6.774;2023-08-12T02:13:20;101204.28;;;18.92;100.00
13612;BME280;6877;51.436;6.774;2023-08-12T02:15:51;101198.09;;;18.91;100.00
13612;BME280;6877;51.436;6.774;2023-08-12T02:18:23;101189.25;;;18.92;100.00
13612;BME280;6877;51.436;6.774;2023-08-12T02:20:54;101188.44;;;18.90;100.00
13612;BME280;6877;51.436;6.774;2023-08-12T02:23:26;101188.53;;;18.89;100.00
13612;BME280;6877;51.436;6.774;2023-08-12T02:25:52;101192.09;;;18.88;100.00
13612;BME280;6877;51.436;6.774;2023-08-12T02:28:25;101187.72;;;18.87;100.00
13612;BME280;6877;51.436;6.774;2023-08-12T02:30:56;101186.91;;;18.85;100.00
13612;BME280;6877;51.436;6.774;2023-08-12T02:33:23;101174.59;;;18.84;100.00
13612;BME280;6877;51.436;6.774;2023-08-12T02:35:54;101185.22;;;18.84;100.00
13612;BME280;6877;51.436;6.774;2023-08-12T02:38:21;101173.75;;;18.83;100.00
13612;BME280;6877;51.436;6.774;2023-08-12T02:40:48;101175.69;;;18.80;100.00
13612;BME280;6877;51.436;6.774;2023-08-12T02:43:18;101175.75;;;18.78;100.00
13612;BME280;6877;51.436;6.774;2023-08-12T02:45:50;101167.78;;;18.78;100.00
13612;BME280;6877;51.436;6.774;2023-08-12T02:48:21;101169.59;;;18.78;100.00
13612;BME280;6877;51.436;6.774;2023-08-12T02:50:47;101167.88;;;18.77;100.00
13612;BME280;6877;51.436;6.774;2023-08-12T02:53:15;101167.88;;;18.77;100.00
13612;BME280;6877;51.436;6.774;2023-08-12T02:55:42;101167.78;;;18.78;100.00
13612;BME280;6877;51.436;6.774;2023-08-12T02:58:08;101153.63;;;18.79;100.00
13612;BME280;6877;51.436;6.774;2023-08-12T03:00:35;101152.69;;;18.80;100.00
13612;BME280;6877;51.436;6.774;2023-08-12T03:03:01;101154.38;;;18.81;100.00
13612;BME280;6877;51.436;6.774;2023-08-12T03:05:32;101155.38;;;18.79;100.00
13612;BME280;6877;51.436;6.774;2023-08-12T03:07:59;101151.97;;;18.77;100.00
13612;BME280;6877;51.436;6.774;2023-08-12T03:10:36;101151.03;;;18.78;100.00
13612;BME280;6877;51.436;6.774;2023-08-12T03:13:07;101153.63;;;18.79;100.00
13612;BME280;6877;51.436;6.774;2023-08-12T03:15:34;101152.59;;;18.82;100.00
13612;BME280;6877;51.436;6.774;2023-08-12T03:18:00;101152.59;;;18.82;100.00
13612;BME280;6877;51.436;6.774;2023-08-12T03:20:27;101144.63;;;18.82;100.00
13612;BME280;6877;51.436;6.774;2023-08-12T03:22:58;101143.88;;;18.80;100.00
13612;BME280;6877;51.436;6.774;2023-08-12T03:25:26;101134.16;;;18.79;100.00
13612;BME280;6877;51.436;6.774;2023-08-12T03:27:57;101139.47;;;18.79;100.00
13612;BME280;6877;51.436;6.774;2023-08-12T03:30:23;101137.63;;;18.81;100.00
13612;BME280;6877;51.436;6.774;2023-08-12T03:32:51;101132.31;;;18.81;100.00
13612;BME280;6877;51.436;6.774;2023-08-12T03:35:19;101142.94;;;18.81;100.00
13612;BME280;6877;51.436;6.774;2023-08-12T03:37:50;101133.25;;;18.80;100.00
13612;BME280;6877;51.436;6.774;2023-08-12T03:40:23;101133.25;;;18.80;100.00
13612;BME280;6877;51.436;6.774;2023-08-12T03:42:50;101133.25;;;18.80;100.00
13612;BME280;6877;51.436;6.774;2023-08-12T03:45:21;101122.72;;;18.78;100.00
13612;BME280;6877;51.436;6.774;2023-08-12T03:47:47;101134.97;;;18.81;100.00
13612;BME280;6877;51.436;6.774;2023-08-12T03:50:14;101127.88;;;18.81;100.00
13612;BME280;6877;51.436;6.774;2023-08-12T03:52:40;101119.00;;;18.82;100.00
13612;BME280;6877;51.436;6.774;2023-08-12T03:55:07;101121.72;;;18.81;100.00
13612;BME280;6877;51.436;6.774;2023-08-12T03:57:34;101116.41;;;18.81;100.00
13612;BME280;6877;51.436;6.774;2023-08-12T04:00:00;101112.91;;;18.80;100.00
13612;BME280;6877;51.436;6.774;2023-08-12T04:02:27;101101.44;;;18.80;100.00
13612;BME280;6877;51.436;6.774;2023-08-12T04:04:58;101106.59;;;18.83;100.00
13612;BME280;6877;51.436;6.774;2023-08-12T04:07:31;101101.31;;;18.83;100.00
13612;BME280;6877;51.436;6.774;2023-08-12T04:09:58;101091.59;;;18.82;100.00
13612;BME280;6877;51.436;6.774;2023-08-12T04:12:24;101097.78;;;18.82;100.00
13612;BME280;6877;51.436;6.774;2023-08-12T04:14:55;101098.72;;;18.81;100.00
13612;BME280;6877;51.436;6.774;2023-08-12T04:17:22;101092.63;;;18.79;100.00
13612;BME280;6877;51.436;6.774;2023-08-12T04:19:49;101092.56;;;18.81;100.00
13612;BME280;6877;51.436;6.774;2023-08-12T04:22:15;101092.56;;;18.81;100.00
13612;BME280;6877;51.436;6.774;2023-08-12T04:24:43;101082.03;;;18.79;100.00
13612;BME280;6877;51.436;6.774;2023-08-12T04:27:14;101090.91;;;18.78;100.00
13612;BME280;6877;51.436;6.774;2023-08-12T04:29:42;101079.44;;;18.78;100.00
13612;BME280;6877;51.436;6.774;2023-08-12T04:32:14;101089.03;;;18.80;100.00
13612;BME280;6877;51.436;6.774;2023-08-12T04:34:45;101077.63;;;18.78;100.00
13612;BME280;6877;51.436;6.774;2023-08-12T04:37:12;101072.44;;;18.77;100.00
13612;BME280;6877;51.436;6.774;2023-08-12T04:39:43;101075.94;;;18.77;100.00
13612;BME280;6877;51.436;6.774;2023-08-12T04:42:10;101076.72;;;18.79;100.00
13612;BME280;6877;51.436;6.774;2023-08-12T04:44:41;101073.03;;;18.82;100.00
13612;BME280;6877;51.436;6.774;2023-08-12T04:47:08;101067.53;;;18.86;100.00
13612;BME280;6877;51.436;6.774;2023-08-12T04:49:34;101073.41;;;18.93;100.00
13612;BME280;6877;51.436;6.774;2023-08-12T04:52:00;101066.09;;;18.98;100.00
13612;BME280;6877;51.436;6.774;2023-08-12T04:54:27;101059.75;;;19.01;100.00
13612;BME280;6877;51.436;6.774;2023-08-12T04:56:53;101055.00;;;19.07;100.00
13612;BME280;6877;51.436;6.774;2023-08-12T04:59:25;101061.91;;;19.11;100.00
13612;BME280;6877;51.436;6.774;2023-08-12T05:01:56;101055.59;;;19.14;100.00
13612;BME280;6877;51.436;6.774;2023-08-12T05:04:23;101050.13;;;19.17;100.00
13612;BME280;6877;51.436;6.774;2023-08-12T05:06:50;101043.50;;;19.26;100.00
13612;BME280;6877;51.436;6.774;2023-08-12T05:09:21;101053.19;;;19.27;100.00
13612;BME280;6877;51.436;6.774;2023-08-12T05:11:47;101052.56;;;19.21;100.00
13612;BME280;6877;51.436;6.774;2023-08-12T05:14:14;101055.34;;;19.18;100.00
13612;BME280;6877;51.436;6.774;2023-08-12T05:16:40;101051.84;;;19.18;100.00
13612;BME280;6877;51.436;6.774;2023-08-12T05:19:07;101056.28;;;19.17;100.00
13612;BME280;6877;51.436;6.774;2023-08-12T05:21:38;101058.16;;;19.15;100.00
13612;BME280;6877;51.436;6.774;2023-08-12T05:24:05;101056.66;;;19.10;100.00
13612;BME280;6877;51.436;6.774;2023-08-12T05:26:37;101049.66;;;19.09;100.00
13612;BME280;6877;51.436;6.774;2023-08-12T05:29:03;101060.25;;;19.09;100.00
13612;BME280;6877;51.436;6.774;2023-08-12T05:31:30;101054.94;;;19.09;100.00
13612;BME280;6877;51.436;6.774;2023-08-12T05:34:01;101054.84;;;19.10;100.00
13612;BME280;6877;51.436;6.774;2023-08-12T05:36:28;101047.00;;;19.09;100.00
13612;BME280;6877;51.436;6.774;2023-08-12T05:38:55;101037.22;;;19.09;100.00
13612;BME280;6877;51.436;6.774;2023-08-12T05:41:21;101036.22;;;19.12;100.00
13612;BME280;6877;51.436;6.774;2023-08-12T05:43:48;101030.78;;;19.15;100.00
13612;BME280;6877;51.436;6.774;2023-08-12T05:46:15;101034.13;;;19.18;100.00
13612;BME280;6877;51.436;6.774;2023-08-12T05:48:46;101041.88;;;19.23;100.00
13612;BME280;6877;51.436;6.774;2023-08-12T05:51:18;101035.69;;;19.22;100.00
13612;BME280;6877;51.436;6.774;2023-08-12T05:53:44;101036.56;;;19.23;100.00
13612;BME280;6877;51.436;6.774;2023-08-12T05:56:11;101040.13;;;19.22;100.00
13612;BME280;6877;51.436;6.774;2023-08-12T05:58:42;101025.16;;;19.21;100.00
13612;BME280;6877;51.436;6.774;2023-08-12T06:01:09;101020.84;;;19.18;100.00
13612;BME280;6877;51.436;6.774;2023-08-12T06:03:35;101022.41;;;19.22;100.00
13612;BME280;6877;51.436;6.774;2023-08-12T06:06:06;101028.66;;;19.21;100.00
13612;BME280;6877;51.436;6.774;2023-08-12T06:08:38;101028.03;;;19.16;100.00
13612;BME280;6877;51.436;6.774;2023-08-12T06:11:09;101029.91;;;19.14;100.00
13612;BME280;6877;51.436;6.774;2023-08-12T06:13:36;101026.31;;;19.15;100.00
13612;BME280;6877;51.436;6.774;2023-08-12T06:16:02;101032.88;;;19.08;100.00
13612;BME280;6877;51.436;6.774;2023-08-12T06:18:34;101040.13;;;19.05;100.00
13612;BME280;6877;51.436;6.774;2023-08-12T06:21:00;101044.72;;;19.01;100.00
13612;BME280;6877;51.436;6.774;2023-08-12T06:23:31;101043.84;;;19.01;100.00
13612;BME280;6877;51.436;6.774;2023-08-12T06:25:58;101041.03;;;19.04;100.00
13612;BME280;6877;51.436;6.774;2023-08-12T06:28:24;101033.47;;;18.96;100.00
13612;BME280;6877;51.436;6.774;2023-08-12T06:30:56;101031.91;;;18.92;100.00
13612;BME280;6877;51.436;6.774;2023-08-12T06:33:22;101023.00;;;18.93;100.00
13612;BME280;6877;51.436;6.774;2023-08-12T06:35:54;101016.84;;;18.92;100.00
13612;BME280;6877;51.436;6.774;2023-08-12T06:38:20;101021.22;;;18.93;100.00
13612;BME280;6877;51.436;6.774;2023-08-12T06:40:47;101013.19;;;18.95;100.00
13612;BME280;6877;51.436;6.774;2023-08-12T06:43:13;101004.31;;;18.96;100.00
13612;BME280;6877;51.436;6.774;2023-08-12T06:45:40;100999.16;;;18.93;100.00
13612;BME280;6877;51.436;6.774;2023-08-12T06:48:06;100993.69;;;18.96;100.00
13612;BME280;6877;51.436;6.774;2023-08-12T06:50:33;100999.94;;;18.95;100.00
13612;BME280;6877;51.436;6.774;2023-08-12T06:53:04;100993.69;;;18.96;100.00
13612;BME280;6877;51.436;6.774;2023-08-12T06:55:30;100993.69;;;18.96;100.00
13612;BME280;6877;51.436;6.774;2023-08-12T06:58:02;100985.66;;;18.97;100.00
13612;BME280;6877;51.436;6.774;2023-08-12T07:00:33;100999.63;;;19.01;100.00
13612;BME280;6877;51.436;6.774;2023-08-12T07:03:00;100980.28;;;18.99;100.00
13612;BME280;6877;51.436;6.774;2023-08-12T07:05:26;100988.53;;;19.10;100.00
13612;BME280;6877;51.436;6.774;2023-08-12T07:07:58;101005.09;;;19.15;100.00
13612;BME280;6877;51.436;6.774;2023-08-12T07:10:29;101002.22;;;19.20;100.00
13612;BME280;6877;51.436;6.774;2023-08-12T07:13:01;100993.53;;;19.16;100.00
13612;BME280;6877;51.436;6.774;2023-08-12T07:15:27;100999.94;;;19.12;100.00
13612;BME280;6877;51.436;6.774;2023-08-12T07:17:53;100993.53;;;19.16;100.00
13612;BME280;6877;51.436;6.774;2023-08-12T07:20:20;100990.97;;;19.15;100.00
13612;BME280;6877;51.436;6.774;2023-08-12T07:22:46;100995.97;;;19.21;100.00
13612;BME280;6877;51.436;6.774;2023-08-12T07:25:13;100993.22;;;19.22;100.00
13612;BME280;6877;51.436;6.774;2023-08-12T07:27:44;101002.13;;;19.21;100.00
13612;BME280;6877;51.436;6.774;2023-08-12T07:30:11;101001.34;;;19.19;100.00
13612;BME280;6877;51.436;6.774;2023-08-12T07:32:38;100992.31;;;19.24;100.00
13612;BME280;6877;51.436;6.774;2023-08-12T07:35:05;100995.34;;;19.33;100.00
13612;BME280;6877;51.436;6.774;2023-08-12T07:37:32;100998.41;;;19.43;100.00
13612;BME280;6877;51.436;6.774;2023-08-12T07:39:59;101000.91;;;19.46;100.00
13612;BME280;6877;51.436;6.774;2023-08-12T07:42:26;101002.59;;;19.47;100.00
13612;BME280;6877;51.436;6.774;2023-08-12T07:44:52;100998.25;;;19.46;100.00
13612;BME280;6877;51.436;6.774;2023-08-12T07:47:24;100993.63;;;19.50;100.00
13612;BME280;6877;51.436;6.774;2023-08-12T07:49:50;100987.22;;;19.54;100.00
13612;BME280;6877;51.436;6.774;2023-08-12T07:52:17;100993.31;;;19.56;100.00
13612;BME280;6877;51.436;6.774;2023-08-12T07:54:43;100994.09;;;19.58;100.00
13612;BME280;6877;51.436;6.774;2023-08-12T07:57:10;100987.59;;;19.63;100.00
13612;BME280;6877;51.436;6.774;2023-08-12T07:59:36;100996.13;;;19.70;100.00
13612;BME280;6877;51.436;6.774;2023-08-12T08:02:07;100990.75;;;19.72;100.00
13612;BME280;6877;51.436;6.774;2023-08-12T08:04:39;100990.63;;;19.73;100.00
13612;BME280;6877;51.436;6.774;2023-08-12T08:07:05;100997.09;;;19.85;100.00
13612;BME280;6877;51.436;6.774;2023-08-12T08:09:37;100976.31;;;19.93;100.00
13612;BME280;6877;51.436;6.774;2023-08-12T08:12:03;100986.16;;;19.91;100.00
13612;BME280;6877;51.436;6.774;2023-08-12T08:14:36;100992.25;;;19.93;100.00
13612;BME280;6877;51.436;6.774;2023-08-12T08:17:02;100978.97;;;19.93;100.00
13612;BME280;6877;51.436;6.774;2023-08-12T08:19:30;100983.81;;;19.85;100.00
13612;BME280;6877;51.436;6.774;2023-08-12T08:21:57;100984.84;;;19.82;100.00
13612;BME280;6877;51.436;6.774;2023-08-12T08:24:23;100984.16;;;19.79;100.00
13612;BME280;6877;51.436;6.774;2023-08-12T08:26:55;100989.88;;;19.71;100.00
13612;BME280;6877;51.436;6.774;2023-08-12T08:29:21;100979.31;;;19.70;100.00
13612;BME280;6877;51.436;6.774;2023-08-12T08:31:53;100984.56;;;19.71;100.00
13612;BME280;6877;51.436;6.774;2023-08-12T08:34:24;100984.47;;;19.73;100.00
13612;BME280;6877;51.436;6.774;2023-08-12T08:36:55;100982.78;;;19.72;100.00
13612;BME280;6877;51.436;6.774;2023-08-12T08:39:27;100987.75;;;19.78;100.00
13612;BME280;6877;51.436;6.774;2023-08-12T08:41:54;100991.19;;;19.80;100.00
13612;BME280;6877;51.436;6.774;2023-08-12T08:44:22;100981.59;;;19.77;100.00
13612;BME280;6877;51.436;6.774;2023-08-12T08:46:52;100980.59;;;19.80;100.00
13612;BME280;6877;51.436;6.774;2023-08-12T08:49:19;100986.47;;;19.85;100.00
13612;BME280;6877;51.436;6.774;2023-08-12T08:51:52;100977.34;;;19.90;100.00
13612;BME280;6877;51.436;6.774;2023-08-12T08:54:23;100973.72;;;19.91;100.00
13612;BME280;6877;51.436;6.774;2023-08-12T08:56:50;100979.56;;;19.98;100.00
13612;BME280;6877;51.436;6.774;2023-08-12T08:59:22;100985.75;;;19.99;100.00
13612;BME280;6877;51.436;6.774;2023-08-12T09:01:49;100982.47;;;19.94;100.00
13612;BME280;6877;51.436;6.774;2023-08-12T09:04:18;100995.06;;;19.90;100.00
13612;BME280;6877;51.436;6.774;2023-08-12T09:06:47;100994.44;;;19.85;100.00
13612;BME280;6877;51.436;6.774;2023-08-12T09:09:16;100988.03;;;19.89;100.00
13612;BME280;6877;51.436;6.774;2023-08-12T09:11:52;100992.41;;;19.90;100.00
13612;BME280;6877;51.436;6.774;2023-08-12T09:14:24;100993.59;;;19.84;100.00
13612;BME280;6877;51.436;6.774;2023-08-12T09:16:55;100993.06;;;19.78;100.00
13612;BME280;6877;51.436;6.774;2023-08-12T09:19:28;100992.28;;;19.76;100.00
13612;BME280;6877;51.436;6.774;2023-08-12T09:21:54;100997.69;;;19.74;100.00
13612;BME280;6877;51.436;6.774;2023-08-12T09:24:27;100995.03;;;19.74;100.00
13612;BME280;6877;51.436;6.774;2023-08-12T09:26:58;100995.78;;;19.76;100.00
13612;BME280;6877;51.436;6.774;2023-08-12T09:29:32;101002.75;;;19.79;100.00
13612;BME280;6877;51.436;6.774;2023-08-12T09:32:27;101001.81;;;19.80;100.00
13612;BME280;6877;51.436;6.774;2023-08-12T09:34:57;101000.25;;;19.76;100.00
13612;BME280;6877;51.436;6.774;2023-08-12T09:37:28;100993.41;;;19.72;100.00
13612;BME280;6877;51.436;6.774;2023-08-12T09:40:00;101005.19;;;19.66;100.00
13612;BME280;6877;51.436;6.774;2023-08-12T09:42:28;100997.22;;;19.66;100.00
13612;BME280;6877;51.436;6.774;2023-08-12T09:44:56;101006.03;;;19.66;100.00
13612;BME280;6877;51.436;6.774;2023-08-12T09:47:25;101006.84;;;19.68;100.00
13612;BME280;6877;51.436;6.774;2023-08-12T09:49:53;101009.31;;;19.72;100.00
13612;BME280;6877;51.436;6.774;2023-08-12T09:52:19;101017.28;;;19.72;100.00
13612;BME280;6877;51.436;6.774;2023-08-12T09:54:52;101008.47;;;19.71;100.00
13612;BME280;6877;51.436;6.774;2023-08-12T09:57:24;101014.53;;;19.73;100.00
13612;BME280;6877;51.436;6.774;2023-08-12T09:59:52;101014.22;;;19.79;100.00
13612;BME280;6877;51.436;6.774;2023-08-12T10:02:20;101013.72;;;19.88;100.00
13612;BME280;6877;51.436;6.774;2023-08-12T10:04:50;101014.09;;;19.98;100.00
13612;BME280;6877;51.436;6.774;2023-08-12T10:07:17;101015.50;;;20.05;100.00
13612;BME280;6877;51.436;6.774;2023-08-12T10:09:43;101002.91;;;20.09;100.00
13612;BME280;6877;51.436;6.774;2023-08-12T10:12:15;101009.34;;;20.21;100.00
13612;BME280;6877;51.436;6.774;2023-08-12T10:14:48;101001.97;;;20.26;100.00
13612;BME280;6877;51.436;6.774;2023-08-12T10:17:14;101010.91;;;20.25;100.00
13612;BME280;6877;51.436;6.774;2023-08-12T10:19:44;101011.59;;;20.28;100.00
13612;BME280;6877;51.436;6.774;2023-08-12T10:22:11;101014.28;;;20.60;100.00
13612;BME280;6877;51.436;6.774;2023-08-12T10:24:39;101015.47;;;20.86;100.00
13612;BME280;6877;51.436;6.774;2023-08-12T10:27:06;101000.88;;;20.93;100.00
13612;BME280;6877;51.436;6.774;2023-08-12T10:29:37;101012.63;;;20.89;100.00
13612;BME280;6877;51.436;6.774;2023-08-12T10:32:04;101014.94;;;20.95;100.00
13612;BME280;6877;51.436;6.774;2023-08-12T10:34:36;101012.88;;;21.00;100.00
13612;BME280;6877;51.436;6.774;2023-08-12T10:37:09;101018.94;;;21.02;100.00
13612;BME280;6877;51.436;6.774;2023-08-12T10:39:37;100999.94;;;20.94;100.00
13612;BME280;6877;51.436;6.774;2023-08-12T10:42:10;101008.00;;;20.77;100.00
13612;BME280;6877;51.436;6.774;2023-08-12T10:44:49;100995.84;;;20.73;100.00
13612;BME280;6877;51.436;6.774;2023-08-12T10:47:22;101002.63;;;20.63;100.00
13612;BME280;6877;51.436;6.774;2023-08-12T10:49:49;101005.19;;;20.64;100.00
13612;BME280;6877;51.436;6.774;2023-08-12T10:52:29;101006.94;;;20.65;100.00
13612;BME280;6877;51.436;6.774;2023-08-12T10:55:18;100998.06;;;20.65;100.00
13612;BME280;6877;51.436;6.774;2023-08-12T10:57:45;101000.03;;;20.61;100.00
13612;BME280;6877;51.436;6.774;2023-08-12T11:00:19;100991.22;;;20.60;100.00
13612;BME280;6877;51.436;6.774;2023-08-12T11:02:53;101000.81;;;20.63;100.00
13612;BME280;6877;51.436;6.774;2023-08-12T11:05:38;100997.66;;;20.72;100.00
13612;BME280;6877;51.436;6.774;2023-08-12T11:08:05;100988.19;;;20.82;100.00
13612;BME280;6877;51.436;6.774;2023-08-12T11:10:33;100984.56;;;20.83;100.00
13612;BME280;6877;51.436;6.774;2023-08-12T11:13:05;100980.53;;;20.92;100.00
13612;BME280;6877;51.436;6.774;2023-08-12T11:18:14;100971.00;;;21.18;100.00
13612;BME280;6877;51.436;6.774;2023-08-12T11:20:48;100978.59;;;21.40;100.00
13612;BME280;6877;51.436;6.774;2023-08-12T11:23:15;100966.00;;;21.58;100.00
13612;BME280;6877;51.436;6.774;2023-08-12T11:25:43;100973.81;;;21.75;100.00
13612;BME280;6877;51.436;6.774;2023-08-12T11:28:11;100970.34;;;21.88;100.00
13612;BME280;6877;51.436;6.774;2023-08-12T11:30:40;100965.22;;;21.99;100.00
13612;BME280;6877;51.436;6.774;2023-08-12T11:33:08;100965.88;;;22.03;100.00
13612;BME280;6877;51.436;6.774;2023-08-12T11:35:40;100967.22;;;21.95;100.00
13612;BME280;6877;51.436;6.774;2023-08-12T11:38:11;100978.66;;;21.83;100.00
13612;BME280;6877;51.436;6.774;2023-08-12T11:40:38;100971.31;;;21.58;100.00
13612;BME280;6877;51.436;6.774;2023-08-12T11:43:09;100978.13;;;21.18;100.00
13612;BME280;6877;51.436;6.774;2023-08-12T11:45:36;100995.75;;;20.58;100.00
13612;BME280;6877;51.436;6.774;2023-08-12T11:48:04;100979.06;;;20.07;100.00
13612;BME280;6877;51.436;6.774;2023-08-12T11:50:31;100980.00;;;19.90;100.00
13612;BME280;6877;51.436;6.774;2023-08-12T11:53:02;100984.78;;;19.84;100.00
13612;BME280;6877;51.436;6.774;2023-08-12T11:55:29;100990.34;;;19.95;100.00
13612;BME280;6877;51.436;6.774;2023-08-12T11:58:00;100983.00;;;20.00;100.00
13612;BME280;6877;51.436;6.774;2023-08-12T12:00:27;100983.47;;;20.08;100.00
13612;BME280;6877;51.436;6.774;2023-08-12T12:02:59;100994.69;;;20.13;100.00
13612;BME280;6877;51.436;6.774;2023-08-12T12:05:29;100980.25;;;20.02;100.00
13612;BME280;6877;51.436;6.774;2023-08-12T12:08:05;100985.63;;;19.84;100.00
13612;BME280;6877;51.436;6.774;2023-08-12T12:10:35;100980.31;;;19.84;100.00
13612;BME280;6877;51.436;6.774;2023-08-12T12:13:03;100979.38;;;19.85;100.00
13612;BME280;6877;51.436;6.774;2023-08-12T12:15:41;100982.13;;;19.84;100.00
13612;BME280;6877;51.436;6.774;2023-08-12T12:18:12;100980.38;;;19.83;100.00
13612;BME280;6877;51.436;6.774;2023-08-12T12:20:56;100981.13;;;19.69;100.00
13612;BME280;6877;51.436;6.774;2023-08-12T12:23:30;100980.72;;;19.59;100.00
13612;BME280;6877;51.436;6.774;2023-08-12T12:26:03;100977.44;;;19.54;100.00
13612;BME280;6877;51.436;6.774;2023-08-12T12:28:30;100973.94;;;19.54;100.00
13612;BME280;6877;51.436;6.774;2023-08-12T12:30:57;100983.22;;;19.62;100.00
13612;BME280;6877;51.436;6.774;2023-08-12T12:33:28;100992.53;;;19.71;100.00
13612;BME280;6877;51.436;6.774;2023-08-12T12:35:55;100998.53;;;19.75;100.00
13612;BME280;6877;51.436;6.774;2023-08-12T12:38:22;100997.44;;;19.79;100.00
13612;BME280;6877;51.436;6.774;2023-08-12T12:40:53;101005.00;;;19.86;100.00
13612;BME280;6877;51.436;6.774;2023-08-12T12:43:19;101001.63;;;19.83;100.00
13612;BME280;6877;51.436;6.774;2023-08-12T12:45:46;101003.97;;;19.89;100.00
13612;BME280;6877;51.436;6.774;2023-08-12T12:48:12;101000.91;;;19.97;100.00
13612;BME280;6877;51.436;6.774;2023-08-12T12:50:39;101003.75;;;20.09;100.00
13612;BME280;6877;51.436;6.774;2023-08-12T12:53:05;101003.06;;;20.06;100.00
13612;BME280;6877;51.436;6.774;2023-08-12T12:55:36;101000.84;;;20.14;100.00
13612;BME280;6877;51.436;6.774;2023-08-12T12:58:08;101006.78;;;20.35;100.00
13612;BME280;6877;51.436;6.774;2023-08-12T13:00:35;101008.44;;;20.37;100.00
13612;BME280;6877;51.436;6.774;2023-08-12T13:03:02;101016.63;;;20.17;100.00
13612;BME280;6877;51.436;6.774;2023-08-12T13:05:33;101012.78;;;20.23;100.00